Time;durP1;ratioP1;P1;durP2;ratioP2;P2;SDS_P1;SDS_P2;PMS_P1;PMS_P2;Temp;Humidity;BMP_temperature;BMP_pressure;BME280_temperature;BME280_humidity;BME280_pressure;Samples;Min_cycle;Max_cycle;Signal;HPM_P1;HPM_P2
2022/07/02 00:00:48;;;;;;;2.80;2.00;;;23.60;51.90;24.60;101399.00;;;;5065725;28;20169;-43
2022/07/02 00:03:15;;;;;;;2.10;1.90;;;23.60;51.90;24.60;101399.00;;;;5065396;28;20489;-42
2022/07/02 00:05:54;;;;;;;2.50;2.30;;;23.60;51.90;24.60;101398.00;;;;5065345;28;20213;-44
2022/07/02 00:08:20;;;;;;;2.93;2.00;;;23.50;51.80;24.60;101404.00;;;;5064242;28;20181;-43
2022/07/02 00:10:47;;;;;;;2.00;1.80;;;23.50;51.80;24.60;101397.00;;;;5064532;28;20192;-43
2022/07/02 00:13:13;;;;;;;4.87;2.20;;;23.50;51.90;24.60;101410.00;;;;5064434;28;20184;-42
2022/07/02 00:15:39;;;;;;;2.20;2.00;;;23.50;52.00;24.50;101395.00;;;;5065357;28;20276;-44
2022/07/02 00:18:04;;;;;;;2.40;2.20;;;23.50;52.00;24.50;101405.00;;;;5064422;28;20205;-43
2022/07/02 00:20:30;;;;;;;2.10;2.00;;;23.50;52.00;24.50;101403.00;;;;5064570;28;20264;-42
2022/07/02 00:22:56;;;;;;;3.13;2.20;;;23.50;52.00;24.50;101408.00;;;;5047751;28;20562;-44
2022/07/02 00:25:22;;;;;;;2.43;2.00;;;23.40;51.80;24.50;101404.00;;;;5065770;28;20190;-45
2022/07/02 00:27:48;;;;;;;2.83;2.20;;;23.40;51.90;24.50;101402.00;;;;5064037;28;20618;-44
2022/07/02 00:30:14;;;;;;;2.33;2.13;;;23.40;51.70;24.50;101407.00;;;;5064329;28;20223;-45
2022/07/02 00:32:40;;;;;;;2.67;2.10;;;23.40;51.90;24.40;101406.00;;;;5064692;28;20306;-44
2022/07/02 00:35:09;;;;;;;2.20;2.00;;;23.30;51.80;24.40;101404.00;;;;5064465;28;20643;-44
2022/07/02 00:37:36;;;;;;;2.30;2.10;;;23.40;51.80;24.40;101411.00;;;;5064293;28;20257;-44
2022/07/02 00:40:03;;;;;;;2.20;2.00;;;23.30;51.40;24.40;101413.00;;;;5064412;28;20197;-43
2022/07/02 00:42:29;;;;;;;4.10;2.03;;;23.30;51.70;24.40;101407.00;;;;5065353;28;20887;-43
2022/07/02 00:44:54;;;;;;;2.00;1.90;;;23.30;51.80;24.30;101402.00;;;;5064018;28;20217;-43
2022/07/02 00:47:23;;;;;;;2.93;2.20;;;23.30;51.70;24.30;101400.00;;;;5067059;28;20209;-43
2022/07/02 00:49:49;;;;;;;2.37;2.00;;;23.30;51.70;24.30;101415.00;;;;5070183;28;20173;-43
2022/07/02 00:52:15;;;;;;;2.50;2.20;;;23.20;51.70;24.20;101411.00;;;;5068767;28;20937;-45
2022/07/02 00:54:41;;;;;;;3.60;2.40;;;23.20;51.70;24.20;101428.00;;;;5068766;28;20185;-45
2022/07/02 00:57:06;;;;;;;2.93;2.30;;;23.30;51.70;24.20;101409.00;;;;5068787;28;20283;-44
2022/07/02 00:59:32;;;;;;;2.70;2.20;;;23.20;51.40;24.20;101410.00;;;;5068589;28;20231;-44
2022/07/02 01:01:58;;;;;;;3.60;2.13;;;23.20;51.60;24.20;101413.00;;;;5068721;28;20178;-44
2022/07/02 01:04:31;;;;;;;3.37;2.10;;;23.20;51.60;24.20;101403.00;;;;5069050;28;20208;-43
2022/07/02 01:07:04;;;;;;;2.53;2.10;;;23.20;51.70;24.10;101399.00;;;;5067945;28;20189;-49
2022/07/02 01:12:24;;;;;;;3.07;2.13;;;23.10;51.70;24.10;101410.00;;;;5067784;28;20173;-43
2022/07/02 01:14:53;;;;;;;2.37;2.10;;;23.10;51.70;24.00;101406.00;;;;5067435;28;20177;-43
2022/07/02 01:17:19;;;;;;;2.93;2.20;;;23.10;51.80;24.00;101406.00;;;;5068327;28;20212;-44
2022/07/02 01:19:45;;;;;;;2.53;2.10;;;23.10;51.80;24.00;101406.00;;;;5068659;28;20646;-43
2022/07/02 01:22:18;;;;;;;2.17;1.97;;;23.10;51.60;24.00;101400.00;;;;5068390;28;20266;-46
2022/07/02 01:24:45;;;;;;;2.50;2.10;;;23.00;51.60;24.00;101395.00;;;;5068283;28;20763;-44
2022/07/02 01:27:11;;;;;;;2.93;2.20;;;23.00;51.80;24.00;101391.00;;;;5068549;28;20181;-43
2022/07/02 01:29:37;;;;;;;2.60;2.20;;;23.00;51.70;24.00;101397.00;;;;5068573;28;20664;-53
2022/07/02 01:32:03;;;;;;;4.10;2.20;;;23.00;51.80;23.90;101397.00;;;;5073903;28;20166;-48
2022/07/02 01:34:35;;;;;;;2.33;2.00;;;23.00;51.70;23.90;101387.00;;;;5093173;28;20594;-43
2022/07/02 01:37:01;;;;;;;1.90;1.80;;;22.90;51.70;23.90;101383.00;;;;5087930;28;20193;-44
2022/07/02 01:39:26;;;;;;;2.10;1.90;;;22.90;51.70;23.90;101386.00;;;;5068498;28;20206;-43
2022/07/02 01:41:52;;;;;;;2.40;2.20;;;22.90;51.80;23.80;101384.00;;;;5068411;28;20243;-44
2022/07/02 01:44:18;;;;;;;2.60;2.03;;;22.90;51.80;23.80;101394.00;;;;5067889;28;20622;-45
2022/07/02 01:46:45;;;;;;;1.90;1.80;;;22.80;51.80;23.80;101392.00;;;;5067965;28;20185;-44
2022/07/02 01:49:10;;;;;;;2.30;1.90;;;22.80;51.80;23.80;101393.00;;;;5067941;28;20223;-43
2022/07/02 01:51:36;;;;;;;2.33;2.10;;;22.80;51.90;23.80;101393.00;;;;5068824;28;20165;-44
2022/07/02 01:54:03;;;;;;;1.80;1.70;;;22.80;51.90;23.70;101376.00;;;;5068504;28;20177;-43
2022/07/02 01:56:34;;;;;;;2.50;2.30;;;22.80;51.90;23.70;101397.00;;;;5068323;28;20749;-42
2022/07/02 01:59:00;;;;;;;3.73;2.17;;;22.80;51.90;23.70;101397.00;;;;5067392;28;20166;-45
2022/07/02 02:01:25;;;;;;;5.40;2.30;;;22.70;51.80;23.70;101396.00;;;;5068620;28;20598;-43
2022/07/02 02:03:51;;;;;;;2.67;2.10;;;22.70;51.90;23.70;101392.00;;;;5068548;28;20229;-42
2022/07/02 02:06:17;;;;;;;2.40;2.20;;;22.70;51.90;23.60;101400.00;;;;5068211;28;20243;-47
2022/07/02 02:08:42;;;;;;;2.77;2.20;;;22.70;51.90;23.60;101398.00;;;;5067785;28;20227;-43
2022/07/02 02:11:08;;;;;;;2.53;2.13;;;22.70;51.90;23.60;101398.00;;;;5068174;28;20259;-42
2022/07/02 02:13:34;;;;;;;2.20;2.00;;;22.70;52.60;23.60;101397.00;;;;5068018;28;20169;-43
2022/07/02 02:16:00;;;;;;;2.30;2.10;;;22.60;51.90;23.60;101397.00;;;;5068104;28;20199;-43
2022/07/02 02:18:25;;;;;;;2.10;1.90;;;22.60;51.90;23.50;101394.00;;;;5067663;28;20559;-43
2022/07/02 02:20:51;;;;;;;2.67;2.00;;;22.60;51.90;23.50;101396.00;;;;5068054;28;20178;-43
2022/07/02 02:23:17;;;;;;;2.07;1.90;;;22.60;51.90;23.50;101406.00;;;;5067654;28;20201;-43
2022/07/02 02:25:43;;;;;;;2.20;2.00;;;22.60;52.00;23.50;101400.00;;;;5068082;28;20713;-43
2022/07/02 02:28:08;;;;;;;1.90;1.80;;;22.50;51.90;23.50;101398.00;;;;5067734;28;20174;-44
2022/07/02 02:30:34;;;;;;;1.80;1.70;;;22.50;51.90;23.50;101402.00;;;;5073794;28;20173;-44
2022/07/02 02:33:00;;;;;;;2.10;1.90;;;22.50;51.90;23.40;101408.00;;;;5074429;28;20227;-43
2022/07/02 02:35:26;;;;;;;2.20;1.93;;;22.50;51.90;23.40;101395.00;;;;5067782;28;20217;-43
2022/07/02 02:37:51;;;;;;;3.23;1.90;;;22.50;51.90;23.40;101396.00;;;;5067229;28;20297;-44
2022/07/02 02:40:17;;;;;;;1.87;1.77;;;22.50;51.90;23.40;101414.00;;;;5067436;28;20239;-44
2022/07/02 02:42:43;;;;;;;2.10;1.90;;;22.40;52.10;23.30;101402.00;;;;5067373;28;20177;-44
2022/07/02 02:45:09;;;;;;;2.00;1.80;;;22.40;52.10;23.30;101405.00;;;;5067129;28;20197;-43
2022/07/02 02:47:35;;;;;;;2.10;1.90;;;22.40;52.00;23.30;101403.00;;;;5067401;28;20296;-43
2022/07/02 02:50:03;;;;;;;5.00;2.23;;;22.40;52.10;23.20;101403.00;;;;5067482;28;20658;-45
2022/07/02 02:52:28;;;;;;;1.90;1.80;;;22.40;52.20;23.30;101400.00;;;;5066259;28;20187;-43
2022/07/02 02:54:54;;;;;;;2.33;2.13;;;22.30;52.10;23.30;101399.00;;;;5067250;28;20161;-44
2022/07/02 02:57:20;;;;;;;3.23;2.00;;;22.30;52.10;23.20;101407.00;;;;5067090;28;20170;-43
2022/07/02 02:59:45;;;;;;;2.00;1.80;;;22.30;52.10;23.00;101403.00;;;;5066836;28;20180;-43
2022/07/02 03:02:11;;;;;;;2.63;1.80;;;22.20;52.00;23.20;101413.00;;;;5067231;28;20212;-44
2022/07/02 03:04:37;;;;;;;4.27;1.90;;;22.30;52.10;23.20;101417.00;;;;5067012;28;20194;-43
2022/07/02 03:07:03;;;;;;;3.70;2.00;;;22.20;52.00;23.20;101422.00;;;;5067081;28;20193;-44
2022/07/02 03:09:28;;;;;;;2.67;2.07;;;22.20;52.00;23.20;101416.00;;;;5066878;28;20192;-43
2022/07/02 03:11:54;;;;;;;2.20;2.00;;;22.20;52.00;22.70;101416.00;;;;5067256;28;20648;-44
2022/07/02 03:14:20;;;;;;;1.90;1.80;;;22.20;52.00;23.10;101418.00;;;;5067016;28;20195;-42
2022/07/02 03:16:46;;;;;;;3.30;2.30;;;22.20;52.60;23.10;101419.00;;;;5066965;28;20670;-44
2022/07/02 03:19:11;;;;;;;2.67;1.90;;;22.10;51.90;23.10;101420.00;;;;5066578;28;20181;-43
2022/07/02 03:21:37;;;;;;;2.20;2.00;;;22.20;52.00;23.00;101422.00;;;;5066511;28;20235;-43
2022/07/02 03:24:03;;;;;;;2.40;2.20;;;22.20;52.00;23.00;101426.00;;;;5066468;28;20205;-44
2022/07/02 03:26:29;;;;;;;2.20;1.97;;;22.10;51.90;23.00;101431.00;;;;5066729;28;20616;-44
2022/07/02 03:28:54;;;;;;;6.10;2.07;;;22.10;51.90;23.00;101421.00;;;;5066260;28;20169;-44
2022/07/02 03:31:20;;;;;;;2.30;2.00;;;22.10;51.90;23.00;101429.00;;;;5066482;28;20539;-45
2022/07/02 03:33:46;;;;;;;3.07;2.27;;;22.10;52.20;23.00;101432.00;;;;5066472;28;20848;-43
2022/07/02 03:36:12;;;;;;;2.13;1.93;;;22.10;52.00;23.00;101433.00;;;;5066470;28;20243;-44
2022/07/02 03:38:38;;;;;;;3.80;2.00;;;22.10;52.20;22.90;101422.00;;;;5066421;28;20219;-44
2022/07/02 03:41:06;;;;;;;3.17;2.03;;;22.00;52.10;22.90;101430.00;;;;5066100;28;20189;-43
2022/07/02 03:43:32;;;;;;;4.07;2.57;;;22.00;52.20;22.90;101424.00;;;;5065318;28;20750;-43
2022/07/02 03:45:58;;;;;;;5.63;2.40;;;22.00;52.10;22.90;101423.00;;;;5066375;28;20189;-43
2022/07/02 03:48:24;;;;;;;4.30;2.77;;;22.00;52.20;22.90;101429.00;;;;5065091;28;20170;-45
2022/07/02 03:50:50;;;;;;;3.17;2.40;;;21.90;52.20;22.90;101435.00;;;;5066489;28;20579;-42
2022/07/02 03:53:15;;;;;;;2.57;2.30;;;21.90;52.00;22.90;101433.00;;;;5066250;28;20265;-45
2022/07/02 03:55:41;;;;;;;3.03;2.20;;;21.90;52.10;22.80;101359.00;;;;5065186;28;20481;-44
2022/07/02 03:58:07;;;;;;;2.80;2.13;;;21.90;52.20;22.80;101433.00;;;;5066258;28;20215;-43
2022/07/02 04:00:33;;;;;;;2.07;1.87;;;21.90;52.20;22.80;101434.00;;;;5064937;28;20794;-43
2022/07/02 04:02:58;;;;;;;3.00;2.17;;;21.80;52.10;22.80;101439.00;;;;5076512;28;20189;-43
2022/07/02 04:05:24;;;;;;;2.97;2.33;;;21.80;52.10;22.80;101427.00;;;;5065093;28;20200;-45
2022/07/02 04:07:51;;;;;;;3.77;2.17;;;21.80;52.20;22.80;101426.00;;;;5065947;28;20634;-43
2022/07/02 04:10:16;;;;;;;2.13;1.93;;;21.80;52.10;22.70;101429.00;;;;5065978;28;20166;-44
2022/07/02 04:12:42;;;;;;;2.30;2.10;;;21.80;52.20;22.70;101426.00;;;;5066174;28;20663;-44
2022/07/02 04:15:09;;;;;;;2.30;2.10;;;21.80;52.20;22.70;101438.00;;;;5065712;28;20228;-44
2022/07/02 04:17:34;;;;;;;3.60;2.10;;;21.70;52.20;22.70;101433.00;;;;5065587;28;20586;-43
2022/07/02 04:20:00;;;;;;;2.00;1.90;;;21.70;52.10;22.70;101442.00;;;;5065949;28;20216;-43
2022/07/02 04:22:28;;;;;;;2.23;2.10;;;21.70;52.20;22.70;101441.00;;;;5069520;28;20181;-44
2022/07/02 04:24:54;;;;;;;2.67;2.20;;;21.70;52.20;22.70;101438.00;;;;5069666;28;20212;-42
2022/07/02 04:27:20;;;;;;;2.23;1.90;;;21.70;52.30;22.60;101427.00;;;;5075225;28;20214;-43
2022/07/02 04:29:46;;;;;;;2.60;2.00;;;21.70;52.20;22.60;101430.00;;;;5076085;28;20634;-44
2022/07/02 04:32:11;;;;;;;2.87;2.10;;;21.70;52.30;22.60;101429.00;;;;5073373;28;20200;-44
2022/07/02 04:34:37;;;;;;;2.83;2.10;;;21.60;52.20;22.60;101429.00;;;;5069507;28;20176;-44
2022/07/02 04:37:03;;;;;;;2.73;2.20;;;21.60;52.20;22.60;101431.00;;;;5069958;28;20181;-42
2022/07/02 04:39:29;;;;;;;3.50;2.30;;;21.60;52.20;22.50;101419.00;;;;5070020;28;20556;-43
2022/07/02 04:41:55;;;;;;;2.13;1.93;;;21.60;52.30;22.50;101427.00;;;;5070323;28;20180;-42
2022/07/02 04:44:20;;;;;;;3.30;2.00;;;21.60;52.50;22.50;101431.00;;;;5069623;28;20209;-43
2022/07/02 04:46:46;;;;;;;5.83;2.50;;;21.60;52.50;22.50;101413.00;;;;5090516;28;20260;-43
2022/07/02 04:49:12;;;;;;;7.20;2.67;;;21.50;52.40;22.50;101432.00;;;;5095925;28;20165;-43
2022/07/02 04:51:38;;;;;;;8.30;2.80;;;21.50;52.50;22.50;101432.00;;;;5080190;28;20168;-43
2022/07/02 04:54:03;;;;;;;12.20;2.60;;;21.50;52.50;22.40;101434.00;;;;5069265;28;20256;-43
2022/07/02 04:56:29;;;;;;;5.77;2.40;;;21.50;52.60;22.40;101440.00;;;;5068784;28;20246;-44
2022/07/02 04:58:55;;;;;;;7.53;2.40;;;21.50;52.70;22.40;101450.00;;;;5069258;28;20267;-44
2022/07/02 05:01:23;;;;;;;5.43;2.30;;;21.50;52.70;22.40;101446.00;;;;5069512;28;20169;-42
2022/07/02 05:03:50;;;;;;;2.40;2.10;;;21.50;52.80;22.40;101443.00;;;;5069422;28;20205;-45
2022/07/02 05:06:21;;;;;;;2.87;2.00;;;21.40;52.80;22.40;101442.00;;;;5069092;28;20585;-43
2022/07/02 05:08:48;;;;;;;2.27;2.07;;;21.40;52.80;22.30;101434.00;;;;5068635;28;20168;-42
2022/07/02 05:11:15;;;;;;;4.10;2.17;;;21.40;52.80;22.30;101426.00;;;;5069084;28;20210;-44
2022/07/02 05:13:43;;;;;;;4.07;2.20;;;21.40;53.00;22.30;101429.00;;;;5069407;28;20165;-43
2022/07/02 05:16:09;;;;;;;3.83;1.90;;;21.40;53.10;22.30;101428.00;;;;5068758;28;20200;-43
2022/07/02 05:18:35;;;;;;;5.37;2.10;;;21.40;53.10;22.30;101430.00;;;;5068746;28;20699;-45
2022/07/02 05:21:00;;;;;;;4.03;2.00;;;21.40;53.10;22.20;101431.00;;;;5069364;28;20276;-44
2022/07/02 05:23:26;;;;;;;4.83;2.07;;;21.40;53.30;22.20;101434.00;;;;5068245;28;20197;-44
2022/07/02 05:25:52;;;;;;;2.83;1.80;;;21.40;53.30;22.20;101440.00;;;;5067750;28;20185;-44
2022/07/02 05:28:18;;;;;;;3.60;2.07;;;21.40;53.30;22.20;101437.00;;;;5069086;28;20253;-44
2022/07/02 05:30:44;;;;;;;4.83;1.97;;;21.40;53.40;22.20;101435.00;;;;5075756;28;20177;-42
2022/07/02 05:33:10;;;;;;;2.23;1.87;;;21.40;53.40;22.20;101439.00;;;;5075229;28;20193;-43
2022/07/02 05:35:36;;;;;;;2.87;2.00;;;21.40;53.50;22.20;101436.00;;;;5068310;28;20253;-45
2022/07/02 05:38:01;;;;;;;2.10;1.90;;;21.30;53.50;22.20;101441.00;;;;5068416;28;20181;-44
2022/07/02 05:40:27;;;;;;;2.30;1.73;;;21.40;53.50;22.20;101444.00;;;;5068502;28;20174;-44
2022/07/02 05:42:53;;;;;;;1.90;1.80;;;21.30;53.50;22.20;101454.00;;;;5068740;28;20180;-45
2022/07/02 05:45:19;;;;;;;2.47;1.80;;;21.40;53.80;22.10;101454.00;;;;5067696;28;20200;-44
2022/07/02 05:47:44;;;;;;;3.07;1.93;;;21.30;53.50;22.10;101459.00;;;;5068998;28;20237;-43
2022/07/02 05:50:10;;;;;;;2.47;1.70;;;21.30;53.70;22.10;101448.00;;;;5074180;28;20246;-44
2022/07/02 05:52:36;;;;;;;3.93;1.80;;;21.30;53.70;22.10;101460.00;;;;5072127;28;20180;-44
2022/07/02 05:55:03;;;;;;;2.03;1.70;;;21.30;54.00;22.10;101460.00;;;;5072056;28;20189;-43
2022/07/02 05:57:29;;;;;;;3.63;1.80;;;21.20;54.00;22.10;101457.00;;;;5068089;28;20217;-42
2022/07/02 05:59:55;;;;;;;2.57;1.77;;;21.30;54.20;22.10;101455.00;;;;5068391;28;20177;-44
2022/07/02 06:02:21;;;;;;;1.80;1.70;;;21.30;53.90;22.10;101455.00;;;;5068329;28;20186;-43
2022/07/02 06:04:47;;;;;;;2.57;1.60;;;21.30;54.90;22.10;101460.00;;;;5067395;28;20211;-43
2022/07/02 06:09:57;;;;;;;4.20;1.80;;;21.30;54.30;22.10;101463.00;;;;5068118;28;20164;-43
2022/07/02 06:12:22;;;;;;;1.70;1.60;;;21.20;54.30;22.10;101457.00;;;;5066895;28;20223;-44
2022/07/02 06:14:48;;;;;;;3.10;1.70;;;21.20;54.20;22.00;101463.00;;;;5067292;28;20176;-43
2022/07/02 06:17:14;;;;;;;4.77;1.60;;;21.20;54.20;22.00;101454.00;;;;5066872;28;20226;-43
2022/07/02 06:19:40;;;;;;;4.10;1.80;;;21.10;54.30;22.00;101467.00;;;;5068469;28;20171;-43
2022/07/02 06:22:06;;;;;;;4.37;1.70;;;21.10;54.80;22.00;101467.00;;;;5067082;28;20638;-42
2022/07/02 06:24:31;;;;;;;3.20;1.80;;;21.10;54.60;22.00;101472.00;;;;5067770;28;20211;-43
2022/07/02 06:26:57;;;;;;;3.00;2.00;;;21.10;54.70;22.00;101477.00;;;;5069023;28;20750;-44
2022/07/02 06:29:23;;;;;;;2.13;1.90;;;21.10;54.80;22.00;101473.00;;;;5068757;28;20158;-44
2022/07/02 06:31:49;;;;;;;2.63;2.00;;;21.10;54.80;22.00;101482.00;;;;5068311;28;20172;-43
2022/07/02 06:34:14;;;;;;;4.50;2.00;;;21.10;54.60;21.90;101481.00;;;;5066682;28;20233;-44
2022/07/02 06:36:40;;;;;;;2.20;1.80;;;21.10;54.90;21.90;101484.00;;;;5067810;28;20264;-44
2022/07/02 06:39:06;;;;;;;3.20;1.83;;;21.10;55.10;21.90;101455.00;;;;5067636;28;20226;-42
2022/07/02 06:44:16;;;;;;;1.83;1.53;;;21.10;54.90;21.90;101488.00;;;;5066983;28;20196;-43
2022/07/02 06:46:41;;;;;;;1.80;1.60;;;21.00;54.80;21.90;101482.00;;;;5067023;28;20189;-43
2022/07/02 06:49:07;;;;;;;2.63;1.80;;;21.10;55.10;21.90;101482.00;;;;5003672;28;20180;-43
2022/07/02 06:51:33;;;;;;;1.73;1.57;;;21.10;55.10;21.90;101470.00;;;;5096543;28;20229;-44
2022/07/02 06:54:01;;;;;;;3.67;1.90;;;21.10;54.90;21.90;101469.00;;;;5105992;28;20202;-44
2022/07/02 06:56:28;;;;;;;2.10;1.90;;;21.10;55.00;21.90;101484.00;;;;5103768;28;20718;-42
2022/07/02 06:58:55;;;;;;;1.83;1.60;;;21.10;55.10;21.90;101473.00;;;;5107380;28;20187;-44
2022/07/02 07:01:21;;;;;;;2.23;1.90;;;21.00;55.00;21.90;101469.00;;;;5107103;28;20827;-42
2022/07/02 07:03:46;;;;;;;2.50;1.90;;;21.10;55.20;21.80;101460.00;;;;5107445;28;20199;-42
2022/07/02 07:06:12;;;;;;;3.27;1.93;;;21.00;55.30;21.80;101469.00;;;;5107221;28;20190;-45
2022/07/02 07:08:38;;;;;;;3.57;1.80;;;21.00;55.10;21.80;101463.00;;;;5107025;28;20175;-43
2022/07/02 07:11:03;;;;;;;2.37;1.70;;;21.00;55.00;21.80;101460.00;;;;5107578;28;20171;-43
2022/07/02 07:13:29;;;;;;;1.70;1.60;;;21.00;54.90;21.80;101456.00;;;;5108248;28;20179;-43
2022/07/02 07:15:55;;;;;;;2.80;1.60;;;21.00;55.20;21.80;101460.00;;;;5107486;28;20668;-42
2022/07/02 07:18:21;;;;;;;2.53;1.60;;;21.00;55.30;21.80;101465.00;;;;5107474;28;20194;-43
2022/07/02 07:20:49;;;;;;;2.87;1.80;;;21.00;55.30;21.80;101460.00;;;;5107741;28;20166;-43
2022/07/02 07:23:15;;;;;;;3.17;2.13;;;21.00;56.50;21.80;101460.00;;;;5107100;28;20194;-43
2022/07/02 07:25:40;;;;;;;5.37;2.53;;;21.00;55.80;21.60;101444.00;;;;5107352;28;20779;-44
2022/07/02 07:28:06;;;;;;;5.53;2.30;;;21.10;56.40;21.90;101455.00;;;;5107021;28;20199;-42
2022/07/02 07:30:32;;;;;;;3.10;2.07;;;21.10;58.50;21.90;101449.00;;;;5106984;28;20227;-44
2022/07/02 07:32:58;;;;;;;4.63;2.20;;;21.10;57.60;21.90;101454.00;;;;5106919;28;20155;-43
2022/07/02 07:35:23;;;;;;;4.10;2.20;;;21.00;57.50;21.90;101449.00;;;;5106940;28;20643;-44
2022/07/02 07:37:57;;;;;;;5.03;2.10;;;21.10;57.00;21.90;101444.00;;;;5106738;28;20648;-44
2022/07/02 07:40:24;;;;;;;3.50;2.10;;;21.10;58.40;22.00;101454.00;;;;5106973;28;20159;-44
2022/07/02 07:42:49;;;;;;;4.00;2.10;;;21.20;58.50;22.00;101447.00;;;;5104624;28;20160;-44
2022/07/02 07:45:15;;;;;;;5.63;2.00;;;21.20;58.40;22.00;101451.00;;;;5086925;28;20567;-43
2022/07/02 07:47:42;;;;;;;5.20;2.07;;;21.20;58.30;22.00;101441.00;;;;4917005;28;23245;-44
2022/07/02 07:50:08;;;;;;;3.97;1.90;;;21.20;58.30;22.00;101450.00;;;;5086463;28;20232;-44
2022/07/02 07:52:34;;;;;;;4.47;1.80;;;21.20;58.30;22.10;101441.00;;;;5086779;28;20173;-45
2022/07/02 07:55:00;;;;;;;3.40;2.07;;;21.20;58.40;22.10;101445.00;;;;5085036;28;20250;-44
2022/07/02 07:57:26;;;;;;;3.00;1.83;;;21.20;58.50;22.10;101450.00;;;;5085987;28;20198;-44
2022/07/02 07:59:51;;;;;;;2.00;1.70;;;21.20;58.60;22.10;101447.00;;;;5086320;28;20592;-44
2022/07/02 08:02:17;;;;;;;1.60;1.50;;;21.20;58.50;22.10;101448.00;;;;5086099;28;20221;-44
2022/07/02 08:04:43;;;;;;;3.30;1.80;;;21.20;58.60;22.10;101450.00;;;;5085643;28;20203;-44
2022/07/02 08:07:09;;;;;;;2.37;1.67;;;21.20;58.50;22.10;101448.00;;;;5085627;28;20257;-44
2022/07/02 08:09:34;;;;;;;2.03;1.67;;;21.30;58.60;22.20;101447.00;;;;5096165;28;20176;-43
2022/07/02 08:12:00;;;;;;;3.60;1.93;;;21.30;58.70;22.20;101449.00;;;;5101617;28;20259;-45
2022/07/02 08:14:26;;;;;;;5.03;1.87;;;21.30;58.80;22.20;101446.00;;;;5096037;28;20307;-44
2022/07/02 08:16:51;;;;;;;3.20;1.87;;;21.30;58.90;22.20;101441.00;;;;5086597;28;20196;-44
2022/07/02 08:19:17;;;;;;;2.37;1.80;;;21.40;58.90;22.20;101446.00;;;;5085787;28;20186;-43
2022/07/02 08:21:43;;;;;;;6.73;1.63;;;21.40;59.10;22.20;101441.00;;;;5086383;28;20211;-45
2022/07/02 08:24:09;;;;;;;3.03;1.70;;;21.40;58.90;22.20;101447.00;;;;5084485;28;20200;-44
2022/07/02 08:26:34;;;;;;;1.93;1.60;;;21.40;59.00;22.20;101431.00;;;;5076486;28;20257;-43
2022/07/02 08:29:00;;;;;;;1.80;1.63;;;21.40;59.10;22.20;101438.00;;;;5076202;28;20184;-46
2022/07/02 08:31:26;;;;;;;3.17;1.60;;;21.40;59.00;22.20;101431.00;;;;5086316;28;20168;-44
2022/07/02 08:33:52;;;;;;;2.03;1.60;;;21.40;59.20;22.20;101438.00;;;;5089094;28;20179;-43
2022/07/02 08:36:18;;;;;;;2.20;1.70;;;21.50;59.30;22.20;101429.00;;;;5090688;28;20188;-48
2022/07/02 08:38:44;;;;;;;2.80;1.60;;;21.40;59.30;22.30;101439.00;;;;5088332;28;20652;-45
2022/07/02 08:41:11;;;;;;;5.90;1.90;;;21.40;59.30;22.20;101436.00;;;;5100443;28;20183;-44
2022/07/02 08:43:37;;;;;;;5.17;1.80;;;21.50;60.10;22.30;101436.00;;;;5113642;28;20204;-45
2022/07/02 08:46:04;;;;;;;5.10;1.70;;;21.50;60.10;22.30;101433.00;;;;5085883;28;20211;-45
2022/07/02 08:48:32;;;;;;;4.13;1.90;;;21.50;60.10;22.30;101433.00;;;;5007957;28;20648;-45
2022/07/02 08:50:58;;;;;;;8.03;1.90;;;21.60;60.30;22.30;101438.00;;;;5085804;28;20620;-45
2022/07/02 08:53:24;;;;;;;5.83;1.90;;;21.60;60.30;22.40;101434.00;;;;5081786;28;20193;-44
2022/07/02 08:55:50;;;;;;;4.40;1.70;;;21.60;60.50;22.40;101436.00;;;;5088039;28;20224;-43
2022/07/02 08:58:16;;;;;;;2.97;1.70;;;21.60;60.60;22.40;101428.00;;;;5088102;28;20196;-43
2022/07/02 09:00:42;;;;;;;3.40;1.70;;;21.60;60.20;22.40;101426.00;;;;5088060;28;20547;-44
2022/07/02 09:03:09;;;;;;;3.90;1.50;;;21.70;60.60;22.40;101413.00;;;;5103929;28;20176;-44
2022/07/02 09:05:35;;;;;;;2.97;1.70;;;21.70;60.30;22.40;101416.00;;;;5103430;28;20200;-45
2022/07/02 09:08:01;;;;;;;4.97;1.70;;;21.70;60.30;22.50;101408.00;;;;5106451;28;20196;-45
2022/07/02 09:10:27;;;;;;;4.33;1.70;;;21.70;60.30;22.50;101408.00;;;;5107455;28;20176;-44
2022/07/02 09:12:53;;;;;;;2.33;1.50;;;21.70;60.20;22.50;101412.00;;;;5091817;28;20196;-44
2022/07/02 09:15:19;;;;;;;2.40;1.60;;;21.70;60.30;22.50;101405.00;;;;5091828;28;20290;-44
2022/07/02 09:17:45;;;;;;;2.67;1.70;;;21.70;60.30;22.50;101399.00;;;;5091168;28;20719;-44
2022/07/02 09:20:11;;;;;;;3.00;1.60;;;21.80;60.40;22.50;101407.00;;;;5081102;28;20189;-43
2022/07/02 09:22:45;;;;;;;2.23;1.57;;;21.80;60.40;22.50;101396.00;;;;5071111;28;20201;-43
2022/07/02 09:25:15;;;;;;;4.23;1.70;;;21.80;60.60;22.50;101394.00;;;;5085468;28;20330;-44
2022/07/02 09:27:42;;;;;;;3.33;1.60;;;21.80;60.40;22.60;101397.00;;;;5091502;28;20552;-44
2022/07/02 09:30:09;;;;;;;1.97;1.40;;;21.90;60.30;22.60;101409.00;;;;5101605;28;20169;-45
2022/07/02 09:32:40;;;;;;;1.90;1.43;;;21.80;60.40;22.60;101399.00;;;;5106884;28;20659;-44
2022/07/02 09:35:06;;;;;;;2.33;1.47;;;21.90;60.50;22.60;101393.00;;;;5107674;28;20558;-45
2022/07/02 09:37:32;;;;;;;2.27;1.50;;;21.90;60.50;22.60;101397.00;;;;5091107;28;20252;-44
2022/07/02 09:40:02;;;;;;;1.33;1.23;;;21.90;60.70;22.70;101352.00;;;;5108333;28;20629;-45
2022/07/02 09:42:30;;;;;;;1.53;1.27;;;21.90;60.50;22.70;101403.00;;;;5094364;28;20185;-44
2022/07/02 09:44:57;;;;;;;1.73;1.20;;;21.90;60.50;22.70;101397.00;;;;5091597;28;20211;-45
2022/07/02 09:47:39;;;;;;;1.90;1.40;;;21.90;60.50;22.70;101389.00;;;;5090933;28;20641;-44
2022/07/02 09:50:10;;;;;;;3.70;1.40;;;21.90;60.50;22.70;101390.00;;;;5091266;28;20646;-45
2022/07/02 09:52:37;;;;;;;1.93;1.13;;;22.00;60.90;22.70;101385.00;;;;5091624;28;20207;-45
2022/07/02 09:55:03;;;;;;;2.10;1.30;;;22.00;60.50;22.80;101383.00;;;;5106931;28;20197;-45
2022/07/02 09:57:29;;;;;;;1.30;1.20;;;22.00;60.70;22.80;101381.00;;;;5107057;28;20215;-45
2022/07/02 10:00:07;;;;;;;1.50;1.40;;;22.10;61.00;22.80;101379.00;;;;5106676;28;20218;-45
2022/07/02 10:02:35;;;;;;;1.63;1.53;;;22.10;60.70;22.80;101386.00;;;;5090789;28;20210;-44
2022/07/02 10:05:04;;;;;;;1.47;1.37;;;22.10;61.00;22.80;101379.00;;;;5090269;28;20378;-45
2022/07/02 10:07:29;;;;;;;2.23;1.40;;;22.10;60.70;22.90;101378.00;;;;5091040;28;20229;-44
2022/07/02 10:09:55;;;;;;;2.67;1.40;;;22.10;61.00;22.90;101378.00;;;;5106667;28;20169;-44
2022/07/02 10:12:21;;;;;;;4.43;1.30;;;22.10;61.00;22.90;101382.00;;;;5106960;28;20179;-44
2022/07/02 10:14:47;;;;;;;3.03;1.50;;;22.20;60.90;22.90;101373.00;;;;5090964;28;20173;-45
2022/07/02 10:17:14;;;;;;;1.63;1.47;;;22.20;61.00;23.00;101367.00;;;;5106834;28;20169;-43
2022/07/02 10:19:40;;;;;;;1.83;1.47;;;22.20;61.30;23.00;101361.00;;;;5090290;28;20200;-43
2022/07/02 10:22:06;;;;;;;2.87;1.40;;;22.20;61.70;23.00;101352.00;;;;4908821;28;20272;-45
2022/07/02 10:24:32;;;;;;;1.40;1.30;;;22.30;61.30;23.00;101343.00;;;;5090064;28;20204;-44
2022/07/02 10:26:59;;;;;;;1.40;1.30;;;22.30;61.30;23.00;101345.00;;;;5089547;28;20200;-44
2022/07/02 10:29:26;;;;;;;2.00;1.60;;;22.30;61.00;23.00;101343.00;;;;5088641;28;20180;-44
2022/07/02 10:32:39;;;;;;;1.47;1.20;;;22.30;60.90;23.10;101345.00;;;;5090583;28;20264;-44
2022/07/02 10:35:12;;;;;;;1.77;1.60;;;22.40;61.10;23.10;101348.00;;;;5062923;28;20221;-44
2022/07/02 10:37:39;;;;;;;1.30;1.20;;;22.40;61.00;23.10;101340.00;;;;5088613;28;20166;-44
2022/07/02 10:40:06;;;;;;;1.50;1.40;;;22.40;61.10;23.20;101341.00;;;;5090303;28;20222;-44
2022/07/02 10:42:40;;;;;;;2.37;1.40;;;22.40;61.00;23.20;101341.00;;;;5090323;28;20588;-44
2022/07/02 10:45:17;;;;;;;2.90;1.80;;;22.50;61.20;23.20;101331.00;;;;5089875;28;20204;-45
2022/07/02 10:48:02;;;;;;;1.50;1.30;;;22.50;60.70;23.20;101334.00;;;;5092953;28;20172;-44
2022/07/02 10:50:40;;;;;;;2.40;1.20;;;22.50;60.80;23.30;101320.00;;;;5092566;28;20245;-44
2022/07/02 10:53:12;;;;;;;1.63;1.23;;;22.60;61.30;23.30;101323.00;;;;5090685;28;20169;-44